Time;durP1;ratioP1;P1;durP2;ratioP2;P2;SDS_P1;SDS_P2;PMS_P1;PMS_P2;Temp;Humidity;BMP_temperature;BMP_pressure;BME280_temperature;BME280_humidity;BME280_pressure;Samples;Min_cycle;Max_cycle;Signal;HPM_P1;HPM_P2
2022/09/10 00:02:00;;;;;;;21.63;12.15;;;18.10;99.90;;;;;;5032047;28;20091;-63
2022/09/10 00:04:26;;;;;;;22.13;10.35;;;18.00;99.90;;;;;;5033187;28;20506;-63
2022/09/10 00:06:53;;;;;;;17.77;11.25;;;18.30;99.90;;;;;;5032384;28;20037;-62
2022/09/10 00:09:18;;;;;;;13.88;9.95;;;18.20;99.90;;;;;;5032240;28;20055;-62
2022/09/10 00:11:45;;;;;;;19.65;11.05;;;18.90;99.90;;;;;;5031460;28;20132;-64
2022/09/10 00:14:16;;;;;;;13.50;10.52;;;17.90;99.90;;;;;;5031506;28;20041;-62
2022/09/10 00:16:41;;;;;;;16.85;11.70;;;18.90;99.90;;;;;;5031480;28;20056;-63
2022/09/10 00:19:07;;;;;;;16.90;11.77;;;18.00;99.90;;;;;;5032931;28;20495;-62
2022/09/10 00:21:34;;;;;;;15.48;11.43;;;18.80;99.90;;;;;;5030919;28;20045;-62
2022/09/10 00:24:01;;;;;;;20.08;12.48;;;17.80;99.90;;;;;;5031106;28;20087;-63
2022/09/10 00:26:29;;;;;;;23.17;13.15;;;18.50;99.90;;;;;;5032572;28;20067;-63
2022/09/10 00:28:58;;;;;;;18.10;12.20;;;18.60;99.90;;;;;;5032235;28;20065;-63
2022/09/10 00:31:24;;;;;;;28.20;13.15;;;18.20;99.90;;;;;;5031853;28;20048;-63
2022/09/10 00:33:51;;;;;;;15.60;10.90;;;18.70;99.90;;;;;;5032778;28;20041;-62
2022/09/10 00:36:20;;;;;;;23.05;11.93;;;18.60;99.90;;;;;;5030362;28;20041;-63
2022/09/10 00:38:46;;;;;;;16.20;10.32;;;18.50;99.90;;;;;;5032582;28;20048;-64
2022/09/10 00:41:13;;;;;;;12.32;10.02;;;18.00;99.90;;;;;;5013352;28;20533;-63
2022/09/10 00:43:48;;;;;;;20.17;11.45;;;18.50;99.90;;;;;;5031586;28;20038;-63
2022/09/10 00:46:32;;;;;;;18.40;12.57;;;18.50;99.90;;;;;;5032233;28;20034;-63
2022/09/10 00:49:01;;;;;;;23.05;13.30;;;18.60;99.90;;;;;;5032650;28;20037;-63
2022/09/10 00:51:31;;;;;;;22.15;12.38;;;18.10;99.90;;;;;;5032155;28;20048;-63
2022/09/10 00:53:57;;;;;;;23.48;12.60;;;18.40;99.90;;;;;;5030636;28;20065;-64
2022/09/10 00:56:23;;;;;;;21.85;12.10;;;17.70;99.90;;;;;;5031954;28;20045;-63
2022/09/10 00:58:49;;;;;;;21.80;13.75;;;17.50;99.90;;;;;;5030551;28;20037;-63
2022/09/10 01:01:15;;;;;;;18.30;13.27;;;18.60;99.90;;;;;;5022762;28;20049;-65
2022/09/10 01:03:43;;;;;;;23.33;14.45;;;17.50;99.90;;;;;;5031623;28;20064;-63
2022/09/10 01:06:09;;;;;;;15.95;12.15;;;18.60;99.90;;;;;;5031586;28;20044;-63
2022/09/10 01:08:35;;;;;;;20.85;14.05;;;18.50;99.90;;;;;;5031538;28;20199;-64
2022/09/10 01:11:38;;;;;;;21.67;14.05;;;17.70;99.90;;;;;;5031530;28;20129;-63
2022/09/10 01:14:22;;;;;;;27.90;16.08;;;18.60;99.90;;;;;;5026132;28;20068;-63
2022/09/10 01:17:12;;;;;;;26.85;16.15;;;17.50;99.90;;;;;;5031438;28;20045;-63
2022/09/10 01:20:11;;;;;;;20.75;16.33;;;17.90;99.90;;;;;;5031637;28;20045;-63
2022/09/10 01:23:10;;;;;;;20.83;15.60;;;18.00;99.90;;;;;;5031006;28;20060;-62
2022/09/10 01:26:10;;;;;;;23.30;16.73;;;18.10;99.90;;;;;;4970007;28;20057;-63
2022/09/10 01:29:00;;;;;;;25.83;16.90;;;18.00;99.90;;;;;;5031128;28;20045;-63
2022/09/10 01:31:49;;;;;;;27.90;16.63;;;18.70;99.90;;;;;;5029627;28;20094;-63
2022/09/10 01:34:26;;;;;;;22.75;16.25;;;18.70;99.90;;;;;;5030750;28;20569;-63
2022/09/10 01:36:57;;;;;;;27.52;17.60;;;18.60;99.90;;;;;;5030706;28;20041;-63
2022/09/10 01:39:23;;;;;;;30.88;17.73;;;17.60;99.90;;;;;;5031926;28;20513;-63
2022/09/10 01:41:51;;;;;;;31.75;16.73;;;17.70;99.90;;;;;;5030274;28;20033;-63
2022/09/10 01:44:40;;;;;;;29.50;19.30;;;19.10;99.90;;;;;;5029733;28;20073;-62
2022/09/10 01:47:37;;;;;;;35.38;19.95;;;17.80;99.90;;;;;;5013619;28;20056;-63
2022/09/10 01:50:21;;;;;;;;;;;18.60;99.90;;;;;;5026238;28;20048;-63
2022/09/10 01:53:05;;;;;;;25.33;19.70;;;18.70;99.90;;;;;;5030536;28;20020;-62
2022/09/10 01:55:40;;;;;;;34.03;19.42;;;18.80;99.90;;;;;;5030854;28;20045;-64
2022/09/10 01:58:28;;;;;;;33.70;22.58;;;19.00;99.90;;;;;;5030514;28;20433;-62
2022/09/10 02:01:20;;;;;;;38.83;23.25;;;18.90;99.90;;;;;;5020351;28;20068;-63
2022/09/10 02:03:48;;;;;;;37.58;23.17;;;17.90;99.90;;;;;;5005028;28;20513;-63
2022/09/10 02:06:19;;;;;;;34.40;22.30;;;18.00;99.90;;;;;;5030267;28;20108;-64
2022/09/10 02:08:47;;;;;;;42.60;20.48;;;20.00;99.90;;;;;;5031169;28;20041;-63
2022/09/10 02:11:14;;;;;;;40.47;23.38;;;18.90;99.90;;;;;;5025287;28;20525;-62
2022/09/10 02:13:41;;;;;;;32.22;20.85;;;18.00;99.90;;;;;;5030637;28;20049;-63
2022/09/10 02:16:37;;;;;;;30.88;22.25;;;18.10;99.90;;;;;;5030235;28;20037;-63
2022/09/10 02:19:03;;;;;;;30.98;21.27;;;18.70;99.90;;;;;;5001389;28;20045;-63
2022/09/10 02:21:30;;;;;;;36.00;20.67;;;18.30;99.90;;;;;;5031399;28;20034;-63
2022/09/10 02:24:05;;;;;;;31.50;20.25;;;17.90;99.90;;;;;;5030938;28;20035;-64
2022/09/10 02:26:38;;;;;;;29.42;20.90;;;18.10;99.90;;;;;;5012738;28;20049;-63
2022/09/10 02:29:05;;;;;;;33.38;21.20;;;18.40;99.90;;;;;;5031803;28;20045;-64
2022/09/10 02:31:30;;;;;;;29.67;21.33;;;18.50;99.90;;;;;;5034780;28;20414;-63
2022/09/10 02:33:56;;;;;;;32.63;21.65;;;18.90;99.90;;;;;;5034993;28;20037;-63
2022/09/10 02:36:24;;;;;;;27.20;21.35;;;17.80;99.90;;;;;;5034994;28;20037;-63
2022/09/10 02:38:55;;;;;;;34.58;22.90;;;18.40;99.90;;;;;;5033135;28;20033;-63
2022/09/10 02:41:24;;;;;;;35.53;23.40;;;17.80;99.90;;;;;;5034445;28;20049;-63
2022/09/10 02:43:50;;;;;;;39.92;25.55;;;18.60;99.90;;;;;;5034221;28;20498;-63
2022/09/10 02:46:16;;;;;;;34.55;24.05;;;17.70;99.90;;;;;;5034549;28;20041;-63
2022/09/10 02:48:41;;;;;;;40.58;26.42;;;17.70;99.90;;;;;;5034109;28;20040;-63
2022/09/10 02:51:07;;;;;;;38.90;26.67;;;17.70;99.90;;;;;;5034496;28;20033;-63
2022/09/10 02:53:34;;;;;;;40.50;27.30;;;18.90;99.90;;;;;;5033821;28;20038;-63
2022/09/10 02:56:01;;;;;;;39.63;26.05;;;18.90;99.90;;;;;;5034403;28;20044;-63
2022/09/10 02:58:26;;;;;;;43.72;26.08;;;17.90;99.90;;;;;;5032896;28;20109;-64
2022/09/10 03:00:52;;;;;;;46.00;28.00;;;18.30;99.90;;;;;;5026713;28;20116;-63
2022/09/10 03:03:18;;;;;;;33.65;22.38;;;18.20;99.90;;;;;;5034128;28;20434;-64
2022/09/10 03:05:43;;;;;;;50.63;31.17;;;19.10;99.90;;;;;;5034414;28;20510;-63
2022/09/10 03:08:09;;;;;;;40.05;27.02;;;18.80;99.90;;;;;;5034243;28;20037;-63
2022/09/10 03:10:35;;;;;;;59.72;32.17;;;18.80;99.90;;;;;;5032933;28;20046;-63
2022/09/10 03:13:00;;;;;;;40.55;28.58;;;18.30;99.90;;;;;;5033126;28;20060;-63
2022/09/10 03:15:26;;;;;;;45.13;28.77;;;18.10;99.90;;;;;;5033866;28;20041;-64
2022/09/10 03:17:52;;;;;;;58.97;32.47;;;18.10;99.90;;;;;;5034384;28;20407;-63
2022/09/10 03:20:20;;;;;;;37.75;26.67;;;19.20;99.90;;;;;;5034334;28;20033;-63
2022/09/10 03:22:46;;;;;;;43.30;29.90;;;19.10;99.90;;;;;;5031670;28;20045;-63
2022/09/10 03:25:11;;;;;;;48.85;30.02;;;18.30;99.90;;;;;;5031956;28;20048;-63
2022/09/10 03:27:37;;;;;;;48.60;30.80;;;19.20;99.90;;;;;;5033643;28;20030;-64
2022/09/10 03:30:03;;;;;;;46.10;30.13;;;19.00;99.90;;;;;;5031779;28;20033;-63
2022/09/10 03:32:30;;;;;;;50.78;30.48;;;19.30;99.90;;;;;;5024268;28;20030;-63
2022/09/10 03:34:56;;;;;;;54.25;31.90;;;18.90;99.90;;;;;;5034150;28;20049;-63
2022/09/10 03:37:23;;;;;;;47.67;31.52;;;19.70;99.90;;;;;;5033775;28;20455;-64
2022/09/10 03:39:48;;;;;;;40.33;29.85;;;18.40;99.90;;;;;;5033493;28;20521;-63
2022/09/10 03:42:14;;;;;;;37.85;28.63;;;18.10;99.90;;;;;;5032604;28;20037;-63
2022/09/10 03:44:40;;;;;;;57.72;34.30;;;18.50;99.90;;;;;;5032370;28;20037;-63
2022/09/10 03:47:05;;;;;;;59.65;35.53;;;19.70;99.90;;;;;;5023293;28;20503;-63
2022/09/10 03:49:31;;;;;;;46.40;32.50;;;19.20;99.90;;;;;;5018893;28;20521;-63
2022/09/10 03:51:57;;;;;;;42.45;29.60;;;19.30;99.90;;;;;;5033372;28;20083;-63
2022/09/10 03:54:22;;;;;;;48.42;30.27;;;19.30;99.90;;;;;;5032250;28;20041;-64
2022/09/10 03:56:48;;;;;;;51.45;31.05;;;18.10;99.90;;;;;;5033042;28;20111;-64
2022/09/10 03:59:13;;;;;;;54.75;32.95;;;18.40;99.90;;;;;;5032961;28;20398;-63
2022/09/10 04:01:40;;;;;;;45.05;30.17;;;18.70;99.90;;;;;;5014383;28;20053;-63
2022/09/10 04:04:07;;;;;;;54.20;32.67;;;19.00;99.90;;;;;;5031876;28;20519;-62
2022/09/10 04:06:33;;;;;;;60.30;33.50;;;18.00;99.90;;;;;;5033130;28;20036;-63
2022/09/10 04:09:00;;;;;;;52.67;32.65;;;17.80;99.90;;;;;;5033120;28;20052;-63
2022/09/10 04:11:26;;;;;;;47.20;31.13;;;17.90;99.90;;;;;;5032780;28;20482;-64
2022/09/10 04:13:52;;;;;;;47.92;31.33;;;18.50;99.90;;;;;;5031447;28;20061;-63
2022/09/10 04:16:20;;;;;;;65.70;35.70;;;19.00;99.90;;;;;;5032577;28;20052;-63
2022/09/10 04:18:45;;;;;;;61.03;35.95;;;17.90;99.90;;;;;;5031958;28;20522;-64
2022/09/10 04:21:11;;;;;;;43.58;30.75;;;19.10;99.90;;;;;;5032318;28;20246;-63
2022/09/10 04:23:39;;;;;;;55.88;33.60;;;19.10;99.90;;;;;;5032004;28;20511;-63
2022/09/10 04:26:17;;;;;;;48.53;33.45;;;18.60;99.90;;;;;;5032579;28;20054;-63
2022/09/10 04:28:43;;;;;;;58.05;33.38;;;18.90;99.90;;;;;;5015122;28;20525;-63
2022/09/10 04:31:09;;;;;;;53.65;35.03;;;18.10;99.90;;;;;;5013769;28;20046;-63
2022/09/10 04:33:35;;;;;;;55.72;36.63;;;19.20;99.90;;;;;;5014958;28;20060;-64
2022/09/10 04:36:02;;;;;;;60.60;34.65;;;18.40;99.90;;;;;;5032618;28;20046;-64
2022/09/10 04:38:31;;;;;;;65.65;36.20;;;18.70;99.90;;;;;;5032664;28;20033;-63
2022/09/10 04:40:59;;;;;;;68.25;35.83;;;18.00;99.90;;;;;;5032196;28;20582;-65
2022/09/10 04:43:25;;;;;;;66.65;36.50;;;17.90;99.90;;;;;;5031533;28;20037;-64
2022/09/10 04:45:51;;;;;;;56.38;33.17;;;19.40;99.90;;;;;;5014223;28;20050;-64
2022/09/10 04:48:17;;;;;;;70.10;36.55;;;17.90;99.90;;;;;;5032446;28;20376;-63
2022/09/10 04:50:43;;;;;;;60.70;35.08;;;18.50;99.90;;;;;;5031542;28;20045;-63
2022/09/10 04:53:09;;;;;;;59.25;36.15;;;18.10;99.90;;;;;;5014370;28;20037;-63
2022/09/10 04:55:38;;;;;;;68.45;38.85;;;18.10;99.90;;;;;;5032045;28;20391;-63
2022/09/10 04:58:04;;;;;;;78.10;39.20;;;18.70;99.90;;;;;;5032168;28;20130;-63
2022/09/10 05:00:30;;;;;;;81.65;39.22;;;18.10;99.90;;;;;;5014582;28;20491;-63
2022/09/10 05:02:56;;;;;;;72.75;37.97;;;17.90;99.90;;;;;;5010612;28;20056;-65
2022/09/10 05:05:22;;;;;;;80.85;38.35;;;18.50;99.90;;;;;;5031438;28;20049;-64
2022/09/10 05:07:47;;;;;;;86.32;38.30;;;17.90;99.90;;;;;;5031641;28;20487;-65
2022/09/10 05:10:14;;;;;;;75.90;36.50;;;19.10;99.90;;;;;;5031622;28;20053;-63
2022/09/10 05:12:39;;;;;;;50.65;33.17;;;18.60;99.90;;;;;;5030781;28;20053;-63
2022/09/10 05:15:06;;;;;;;54.50;35.20;;;17.80;99.90;;;;;;5031572;28;20045;-63
2022/09/10 05:17:32;;;;;;;69.28;36.28;;;18.10;99.90;;;;;;5031159;28;20560;-63
2022/09/10 05:19:58;;;;;;;65.38;38.42;;;18.70;99.90;;;;;;5032004;28;20049;-64
2022/09/10 05:22:24;;;;;;;61.15;36.08;;;18.70;99.90;;;;;;5031504;28;20037;-63
2022/09/10 05:24:49;;;;;;;74.53;39.10;;;18.00;99.90;;;;;;5030448;28;20132;-64
2022/09/10 05:27:15;;;;;;;61.53;36.00;;;19.20;99.90;;;;;;5013234;28;20042;-65
2022/09/10 05:29:41;;;;;;;69.65;39.83;;;18.90;99.90;;;;;;5031968;28;20040;-63
2022/09/10 05:32:08;;;;;;;64.72;37.65;;;18.70;99.90;;;;;;5029919;28;20037;-63
2022/09/10 05:34:34;;;;;;;70.57;39.20;;;18.10;99.90;;;;;;5030923;28;20487;-64
2022/09/10 05:36:59;;;;;;;60.97;37.97;;;19.30;99.90;;;;;;5031284;28;20048;-64
2022/09/10 05:39:25;;;;;;;52.60;36.50;;;19.30;99.90;;;;;;5014251;28;20056;-64
2022/09/10 05:41:51;;;;;;;43.20;31.10;;;18.50;99.90;;;;;;5030093;28;20367;-63
2022/09/10 05:44:17;;;;;;;59.35;37.20;;;19.40;99.90;;;;;;5030787;28;20033;-63
2022/09/10 05:46:43;;;;;;;48.40;31.45;;;18.60;99.90;;;;;;5032783;28;20482;-63
2022/09/10 05:49:11;;;;;;;57.60;35.10;;;19.20;99.90;;;;;;5028840;28;20037;-64
2022/09/10 05:51:36;;;;;;;51.10;36.33;;;19.60;99.90;;;;;;5025067;28;20045;-63
2022/09/10 05:54:02;;;;;;;48.45;31.58;;;19.40;99.90;;;;;;5030755;28;20041;-63
2022/09/10 05:56:28;;;;;;;50.95;30.38;;;18.50;99.90;;;;;;5031359;28;20034;-64
2022/09/10 05:58:53;;;;;;;52.72;34.35;;;19.40;99.90;;;;;;5031218;28;20411;-63
2022/09/10 06:01:19;;;;;;;47.58;30.85;;;19.50;99.90;;;;;;5029604;28;20522;-64
2022/09/10 06:03:44;;;;;;;47.85;33.85;;;18.80;99.90;;;;;;5012597;28;20695;-63
2022/09/10 06:06:10;;;;;;;59.40;34.97;;;19.70;99.90;;;;;;5030274;28;20038;-63
2022/09/10 06:08:36;;;;;;;57.30;34.67;;;19.20;99.90;;;;;;5029639;28;20171;-64
2022/09/10 06:11:04;;;;;;;58.17;36.15;;;19.20;99.90;;;;;;5030816;28;20049;-63
2022/09/10 06:13:31;;;;;;;61.55;34.08;;;19.70;99.90;;;;;;5029386;28;20045;-64
2022/09/10 06:15:58;;;;;;;43.53;30.67;;;20.10;99.90;;;;;;5028554;28;20068;-63
2022/09/10 06:18:24;;;;;;;40.70;31.55;;;18.90;99.90;;;;;;5029479;28;20040;-63
2022/09/10 06:21:00;;;;;;;44.90;31.73;;;18.80;99.90;;;;;;5011718;28;20041;-65
2022/09/10 06:23:26;;;;;;;54.70;33.85;;;19.50;99.90;;;;;;5027440;28;20103;-63
2022/09/10 06:26:00;;;;;;;48.10;32.05;;;19.00;99.90;;;;;;4996782;28;20049;-65
2022/09/10 06:28:26;;;;;;;51.08;33.33;;;19.00;99.90;;;;;;5030528;28;20443;-64
2022/09/10 06:30:51;;;;;;;46.00;30.50;;;20.10;99.90;;;;;;5030267;28;20040;-64
2022/09/10 06:33:18;;;;;;;58.75;35.13;;;18.90;99.90;;;;;;5030744;28;20042;-64
2022/09/10 06:35:54;;;;;;;53.20;35.05;;;19.70;99.90;;;;;;5031094;28;20482;-63
2022/09/10 06:38:20;;;;;;;49.00;33.03;;;19.30;99.90;;;;;;5012294;28;20557;-63
2022/09/10 06:40:53;;;;;;;58.10;34.08;;;19.10;99.90;;;;;;5031022;28;20044;-63
2022/09/10 06:43:22;;;;;;;55.00;34.17;;;20.30;99.90;;;;;;5014754;28;20037;-63
2022/09/10 06:45:51;;;;;;;46.90;32.22;;;19.10;99.90;;;;;;5029751;28;20102;-65
2022/09/10 06:48:21;;;;;;;39.83;29.75;;;19.20;99.90;;;;;;5029218;28;20037;-64
2022/09/10 06:51:07;;;;;;;42.92;29.98;;;20.00;99.90;;;;;;5030696;28;20034;-63
2022/09/10 06:53:33;;;;;;;47.97;31.27;;;20.60;99.90;;;;;;5013683;28;20033;-64
2022/09/10 06:56:00;;;;;;;54.80;34.00;;;20.50;99.90;;;;;;5010278;28;20041;-64
2022/09/10 06:58:27;;;;;;;47.35;32.88;;;20.60;99.90;;;;;;5028162;28;20049;-64
2022/09/10 07:00:53;;;;;;;42.20;30.77;;;20.50;99.90;;;;;;5005027;28;20439;-64
2022/09/10 07:03:20;;;;;;;55.00;31.38;;;19.50;99.90;;;;;;5024747;28;20168;-63
2022/09/10 07:05:47;;;;;;;40.92;27.35;;;19.90;99.90;;;;;;5028533;28;20495;-64
2022/09/10 07:08:15;;;;;;;38.97;27.13;;;20.80;99.90;;;;;;5027751;28;20491;-64
2022/09/10 07:10:43;;;;;;;42.03;29.67;;;20.60;99.90;;;;;;5027252;28;20513;-63
2022/09/10 07:13:11;;;;;;;42.00;29.85;;;19.60;99.90;;;;;;5029996;28;20132;-63
2022/09/10 07:15:44;;;;;;;44.80;30.15;;;20.00;99.90;;;;;;5032630;28;20088;-64
2022/09/10 07:18:13;;;;;;;42.85;28.08;;;20.80;99.90;;;;;;5033507;28;20037;-64
2022/09/10 07:20:39;;;;;;;42.10;29.05;;;20.20;99.90;;;;;;5032218;28;20045;-65
2022/09/10 07:23:05;;;;;;;39.25;28.95;;;19.90;99.90;;;;;;5028459;28;20073;-64
2022/09/10 07:25:32;;;;;;;47.97;30.85;;;20.20;99.90;;;;;;5031881;28;20076;-65
2022/09/10 07:28:00;;;;;;;40.53;28.55;;;20.20;99.90;;;;;;5032053;28;20040;-66
2022/09/10 07:30:28;;;;;;;36.03;26.67;;;20.10;99.90;;;;;;5032100;28;20045;-64
2022/09/10 07:32:53;;;;;;;36.38;28.58;;;20.10;99.90;;;;;;5032100;28;20801;-64
2022/09/10 07:35:20;;;;;;;41.42;28.38;;;20.90;99.90;;;;;;5033496;28;20045;-64
2022/09/10 07:37:45;;;;;;;38.00;27.83;;;21.10;99.90;;;;;;5030454;28;20388;-64
2022/09/10 07:40:12;;;;;;;35.17;27.60;;;20.40;99.90;;;;;;5033690;28;20108;-64
2022/09/10 07:42:37;;;;;;;36.95;28.23;;;20.40;99.90;;;;;;5032995;28;20530;-64
2022/09/10 07:45:04;;;;;;;43.15;29.45;;;21.00;99.90;;;;;;5033741;28;20042;-63
2022/09/10 07:47:30;;;;;;;42.28;28.75;;;21.10;99.90;;;;;;4996687;28;20045;-64
2022/09/10 07:49:56;;;;;;;37.67;26.55;;;21.40;99.90;;;;;;5021124;28;20041;-64
2022/09/10 07:52:21;;;;;;;31.85;25.27;;;20.80;99.90;;;;;;5032800;28;20041;-64
2022/09/10 07:54:47;;;;;;;33.22;26.27;;;20.90;99.90;;;;;;5015650;28;20079;-64
2022/09/10 07:57:13;;;;;;;35.40;25.52;;;21.50;99.90;;;;;;5031976;28;20502;-62
2022/09/10 07:59:38;;;;;;;28.48;23.83;;;21.30;99.90;;;;;;5029888;28;20415;-61
2022/09/10 08:02:05;;;;;;;36.85;24.15;;;21.10;99.90;;;;;;5032981;28;20116;-61
2022/09/10 08:04:31;;;;;;;32.72;22.35;;;20.80;99.90;;;;;;5032954;28;20411;-61
2022/09/10 08:06:57;;;;;;;30.75;22.98;;;21.30;99.90;;;;;;5030088;28;20037;-61
2022/09/10 08:09:24;;;;;;;30.55;22.45;;;20.80;99.90;;;;;;5030247;28;20103;-62
2022/09/10 08:11:50;;;;;;;33.05;24.63;;;20.70;99.90;;;;;;5028936;28;20057;-64
2022/09/10 08:14:16;;;;;;;28.58;22.58;;;21.60;99.90;;;;;;5030656;28;20490;-61
2022/09/10 08:16:41;;;;;;;30.20;22.05;;;20.80;99.90;;;;;;5014951;28;20167;-62
2022/09/10 08:19:09;;;;;;;28.00;20.15;;;21.10;99.90;;;;;;5033092;28;20041;-61
2022/09/10 08:21:35;;;;;;;27.98;20.80;;;21.60;99.90;;;;;;5031458;28;20045;-62
2022/09/10 08:24:01;;;;;;;25.08;20.17;;;21.20;99.90;;;;;;5031103;28;20037;-63
2022/09/10 08:26:28;;;;;;;30.88;20.05;;;21.20;99.90;;;;;;5030242;28;20045;-62
2022/09/10 08:28:56;;;;;;;26.63;21.10;;;21.60;99.90;;;;;;5031875;28;20038;-63
2022/09/10 08:31:23;;;;;;;29.92;19.90;;;21.70;99.90;;;;;;5028316;28;20091;-63
2022/09/10 08:33:51;;;;;;;26.42;19.27;;;21.80;99.90;;;;;;5029237;28;20533;-63
2022/09/10 08:36:18;;;;;;;26.73;17.83;;;21.70;99.90;;;;;;5012286;28;20049;-62
2022/09/10 08:38:44;;;;;;;25.95;18.75;;;21.60;99.90;;;;;;5026998;28;20088;-64
2022/09/10 08:41:56;;;;;;;25.45;19.05;;;21.80;99.90;;;;;;5030890;28;20557;-63
2022/09/10 08:44:47;;;;;;;22.65;17.35;;;21.60;99.90;;;;;;4917409;29;20117;-62
2022/09/10 08:47:28;;;;;;;36.60;19.88;;;21.60;99.90;;;;;;4932612;29;20473;-63
2022/09/10 08:50:02;;;;;;;30.10;20.08;;;21.80;99.90;;;;;;5011561;28;20092;-62
2022/09/10 08:52:52;;;;;;;25.15;17.50;;;21.60;99.90;;;;;;5032175;28;20348;-62
2022/09/10 08:55:18;;;;;;;27.48;20.35;;;21.80;99.90;;;;;;5032451;28;20510;-63
2022/09/10 08:57:54;;;;;;;25.23;20.02;;;21.50;99.90;;;;;;5032252;28;20084;-63
2022/09/10 09:00:26;;;;;;;27.38;20.27;;;21.50;99.90;;;;;;4998454;28;20041;-63
2022/09/10 09:03:01;;;;;;;28.70;20.35;;;21.80;99.90;;;;;;5016132;28;20053;-62
2022/09/10 09:05:31;;;;;;;25.83;18.40;;;21.80;99.90;;;;;;5032408;28;20402;-62
2022/09/10 09:07:59;;;;;;;24.60;19.13;;;21.40;99.90;;;;;;5014706;28;20124;-62
2022/09/10 09:10:35;;;;;;;31.83;24.58;;;21.60;99.90;;;;;;5031252;28;20411;-62
2022/09/10 09:13:25;;;;;;;33.33;24.67;;;21.90;99.90;;;;;;5032222;28;20120;-63
2022/09/10 09:16:08;;;;;;;33.17;24.65;;;21.90;99.90;;;;;;5017172;28;20045;-63
2022/09/10 09:19:28;;;;;;;29.30;23.38;;;21.80;99.90;;;;;;5031922;28;20044;-63
2022/09/10 09:21:57;;;;;;;31.27;23.70;;;21.50;99.90;;;;;;4920328;29;20043;-63
2022/09/10 09:24:52;;;;;;;33.92;24.42;;;21.50;99.90;;;;;;4932391;29;20872;-63
2022/09/10 09:27:19;;;;;;;29.52;24.13;;;21.40;99.90;;;;;;5000229;28;20490;-62
2022/09/10 09:29:58;;;;;;;36.20;25.50;;;21.90;99.90;;;;;;5031731;28;20056;-63
2022/09/10 09:32:25;;;;;;;31.13;25.00;;;21.70;99.90;;;;;;5031261;28;20517;-62
2022/09/10 09:35:00;;;;;;;31.77;24.67;;;21.30;99.90;;;;;;5032004;28;20048;-62
2022/09/10 09:37:29;;;;;;;30.10;24.23;;;21.50;99.90;;;;;;5030121;28;20080;-62
2022/09/10 09:39:58;;;;;;;34.30;26.38;;;21.40;99.90;;;;;;5031021;28;20084;-63
2022/09/10 09:42:46;;;;;;;35.05;26.73;;;21.30;99.90;;;;;;5013719;28;20455;-63
2022/09/10 09:45:27;;;;;;;32.95;25.52;;;22.30;99.90;;;;;;5031394;28;20116;-63
2022/09/10 09:47:53;;;;;;;33.95;25.00;;;21.60;99.90;;;;;;5013841;28;20124;-62
2022/09/10 09:50:19;;;;;;;31.90;24.95;;;21.60;99.90;;;;;;5027381;28;20538;-62
2022/09/10 09:52:46;;;;;;;31.13;23.67;;;21.90;99.90;;;;;;5007539;28;20034;-63
2022/09/10 09:55:29;;;;;;;31.00;22.95;;;21.90;99.90;;;;;;5030007;28;20050;-62
2022/09/10 09:58:20;;;;;;;30.67;22.20;;;21.90;99.90;;;;;;5029199;28;20041;-63
2022/09/10 10:01:01;;;;;;;29.17;24.17;;;21.50;99.90;;;;;;5026750;28;20048;-62
2022/09/10 10:03:29;;;;;;;32.33;23.15;;;21.70;99.90;;;;;;5030122;28;20045;-62
2022/09/10 10:06:07;;;;;;;30.45;22.80;;;21.60;99.90;;;;;;5030431;28;20113;-63
2022/09/10 10:08:38;;;;;;;29.00;22.80;;;21.80;99.90;;;;;;5028467;28;20445;-62
2022/09/10 10:11:05;;;;;;;30.45;23.00;;;21.70;99.90;;;;;;5025478;28;20049;-62
2022/09/10 10:13:45;;;;;;;32.38;22.48;;;21.90;99.90;;;;;;5030361;28;20581;-62
2022/09/10 10:16:14;;;;;;;28.80;22.02;;;22.30;99.90;;;;;;5031030;28;20038;-62
2022/09/10 10:18:42;;;;;;;28.77;21.95;;;22.00;99.90;;;;;;5029528;28;20048;-62
2022/09/10 10:21:18;;;;;;;29.52;21.77;;;22.10;99.90;;;;;;5033267;28;20121;-62
2022/09/10 10:23:45;;;;;;;33.60;23.58;;;21.80;99.90;;;;;;5030036;28;20510;-62
2022/09/10 10:26:19;;;;;;;31.08;22.05;;;21.80;99.90;;;;;;5022868;28;20049;-63
2022/09/10 10:28:47;;;;;;;25.13;21.10;;;21.90;99.90;;;;;;5026282;28;20041;-63
2022/09/10 10:31:13;;;;;;;28.42;21.88;;;22.00;99.90;;;;;;5029347;28;20510;-62
2022/09/10 10:33:59;;;;;;;26.80;21.20;;;22.00;99.90;;;;;;5031640;28;20091;-63
2022/09/10 10:36:52;;;;;;;28.25;21.13;;;22.20;99.90;;;;;;5030675;28;20049;-63
2022/09/10 10:39:20;;;;;;;33.08;23.15;;;22.20;99.90;;;;;;5029003;28;20068;-63
2022/09/10 10:42:14;;;;;;;26.65;20.98;;;22.20;99.90;;;;;;5016012;28;20081;-63
2022/09/10 10:44:48;;;;;;;30.67;20.10;;;22.30;99.90;;;;;;5029865;28;20042;-63
2022/09/10 10:47:26;;;;;;;25.42;20.02;;;22.60;99.90;;;;;;5010588;28;20124;-64
2022/09/10 10:50:07;;;;;;;26.83;20.25;;;22.60;99.90;;;;;;5031425;28;20033;-64
2022/09/10 10:52:51;;;;;;;26.85;20.83;;;22.50;99.90;;;;;;5016177;28;20037;-64
2022/09/10 10:55:41;;;;;;;26.85;20.38;;;22.80;99.90;;;;;;5016866;28;20831;-64
2022/09/10 10:58:19;;;;;;;19.67;17.58;;;23.30;99.90;;;;;;5032336;28;20077;-64
2022/09/10 11:01:22;;;;;;;27.30;18.17;;;23.50;99.90;;;;;;5033815;28;20087;-63
2022/09/10 11:03:51;;;;;;;20.85;16.42;;;23.50;99.90;;;;;;5030709;28;20033;-64
2022/09/10 11:06:24;;;;;;;26.55;18.85;;;23.20;99.90;;;;;;5034253;28;20473;-63
2022/09/10 11:08:56;;;;;;;27.65;18.35;;;23.60;99.90;;;;;;5015145;28;20096;-64
2022/09/10 11:11:46;;;;;;;25.52;18.83;;;23.40;99.90;;;;;;5026221;28;20085;-64
2022/09/10 11:14:27;;;;;;;23.23;18.63;;;23.40;99.90;;;;;;5028831;28;20052;-64
2022/09/10 11:16:58;;;;;;;25.27;18.35;;;23.30;99.90;;;;;;5029812;28;20120;-64
2022/09/10 11:19:51;;;;;;;23.35;16.88;;;23.50;99.90;;;;;;5030284;28;20057;-63
2022/09/10 11:22:33;;;;;;;21.15;15.80;;;23.30;99.90;;;;;;5031769;28;20406;-64
2022/09/10 11:25:09;;;;;;;26.30;18.88;;;23.40;99.90;;;;;;5028572;28;20046;-62
2022/09/10 11:27:42;;;;;;;24.42;18.33;;;23.50;99.90;;;;;;5030618;28;20534;-63
2022/09/10 11:30:12;;;;;;;24.52;17.75;;;23.20;99.90;;;;;;5027029;28;20030;-63
2022/09/10 11:32:41;;;;;;;26.13;17.98;;;23.30;99.90;;;;;;5026933;28;20052;-63
2022/09/10 11:35:26;;;;;;;23.60;14.70;;;23.30;99.90;;;;;;5029098;28;20049;-64
2022/09/10 11:38:15;;;;;;;17.77;14.13;;;23.40;99.90;;;;;;5026763;28;20128;-64
2022/09/10 11:40:51;;;;;;;21.73;16.65;;;23.30;99.90;;;;;;5028377;28;20103;-63
2022/09/10 11:43:50;;;;;;;21.15;14.95;;;23.40;99.90;;;;;;5010048;28;20111;-64
2022/09/10 11:46:25;;;;;;;19.73;14.55;;;23.30;99.90;;;;;;5028541;28;20057;-64
2022/09/10 11:49:02;;;;;;;20.23;14.63;;;23.50;99.90;;;;;;5032474;28;20387;-63
2022/09/10 11:51:32;;;;;;;21.70;15.93;;;23.20;99.90;;;;;;5031956;28;20037;-63
2022/09/10 11:53:59;;;;;;;24.38;15.73;;;23.40;99.90;;;;;;5030754;28;20037;-64
2022/09/10 11:57:05;;;;;;;19.58;14.77;;;23.20;99.90;;;;;;5029999;28;20038;-64
2022/09/10 12:00:01;;;;;;;18.92;14.60;;;23.10;99.90;;;;;;4983336;28;20104;-63
2022/09/10 12:02:58;;;;;;;19.00;13.65;;;23.30;99.90;;;;;;4968389;28;20061;-63
2022/09/10 12:05:37;;;;;;;18.92;12.20;;;23.20;99.90;;;;;;5025143;28;20038;-63
2022/09/10 12:08:23;;;;;;;20.80;13.30;;;23.60;99.90;;;;;;5025254;28;20033;-64
2022/09/10 12:11:04;;;;;;;18.27;14.13;;;23.30;99.90;;;;;;5026894;28;20125;-64
2022/09/10 12:13:32;;;;;;;21.45;13.68;;;23.40;99.90;;;;;;5027726;28;20065;-64
2022/09/10 12:16:03;;;;;;;22.23;15.10;;;23.30;99.90;;;;;;5027346;28;20396;-64
2022/09/10 12:18:40;;;;;;;19.77;13.75;;;23.40;99.90;;;;;;5011855;28;20048;-64
2022/09/10 12:21:24;;;;;;;20.08;12.90;;;23.40;99.90;;;;;;5025145;28;20034;-64
2022/09/10 12:23:49;;;;;;;20.05;13.25;;;23.80;99.90;;;;;;5026176;28;20048;-64
2022/09/10 12:26:19;;;;;;;21.58;12.82;;;23.30;99.90;;;;;;5026473;28;20491;-63
2022/09/10 12:28:48;;;;;;;20.35;14.20;;;23.40;99.90;;;;;;5009816;28;20029;-64
2022/09/10 12:31:16;;;;;;;15.57;11.63;;;23.50;99.90;;;;;;5025417;28;20055;-64
2022/09/10 12:33:42;;;;;;;23.17;12.23;;;23.40;99.90;;;;;;5028981;28;20410;-64
2022/09/10 12:36:09;;;;;;;21.27;13.05;;;23.40;99.90;;;;;;5028870;28;20463;-64
2022/09/10 12:38:54;;;;;;;21.00;12.50;;;23.40;99.90;;;;;;5019719;28;20049;-64
2022/09/10 12:41:19;;;;;;;19.77;13.77;;;23.40;99.90;;;;;;5030261;28;20041;-64
2022/09/10 12:43:45;;;;;;;17.98;13.57;;;23.40;99.90;;;;;;5032773;28;20510;-64
2022/09/10 12:46:13;;;;;;;17.92;13.10;;;23.40;99.90;;;;;;5030182;28;20068;-64
2022/09/10 12:49:03;;;;;;;19.33;14.10;;;23.40;99.90;;;;;;5013857;28;20045;-63
2022/09/10 12:51:58;;;;;;;20.42;12.95;;;23.30;99.90;;;;;;5028805;28;20041;-64